sensor_id;sensor_type;location;lat;lon;timestamp;temperature;humidity
21037;DHT22;10677;50.942;4.028;2024-02-14T00:00:12;10.20;99.90
21037;DHT22;10677;50.942;4.028;2024-02-14T00:02:43;10.20;99.90
21037;DHT22;10677;50.942;4.028;2024-02-14T00:05:08;10.30;99.90
21037;DHT22;10677;50.942;4.028;2024-02-14T00:07:36;10.20;99.90
21037;DHT22;10677;50.942;4.028;2024-02-14T00:10:02;10.20;99.90
21037;DHT22;10677;50.942;4.028;2024-02-14T00:12:28;10.20;99.90
21037;DHT22;10677;50.942;4.028;2024-02-14T00:14:54;10.20;99.90
21037;DHT22;10677;50.942;4.028;2024-02-14T00:17:20;10.20;99.90
21037;DHT22;10677;50.942;4.028;2024-02-14T00:19:45;10.20;99.90
21037;DHT22;10677;50.942;4.028;2024-02-14T00:22:11;10.30;99.90
21037;DHT22;10677;50.942;4.028;2024-02-14T00:24:37;10.30;99.90
21037;DHT22;10677;50.942;4.028;2024-02-14T00:27:03;10.30;99.90
21037;DHT22;10677;50.942;4.028;2024-02-14T00:29:29;10.40;99.90
21037;DHT22;10677;50.942;4.028;2024-02-14T00:31:55;10.40;99.90
21037;DHT22;10677;50.942;4.028;2024-02-14T00:34:20;10.40;99.90
21037;DHT22;10677;50.942;4.028;2024-02-14T00:36:46;10.40;99.90
21037;DHT22;10677;50.942;4.028;2024-02-14T00:39:12;10.50;99.90
21037;DHT22;10677;50.942;4.028;2024-02-14T00:41:37;10.50;99.90
21037;DHT22;10677;50.942;4.028;2024-02-14T00:44:03;10.50;99.90
21037;DHT22;10677;50.942;4.028;2024-02-14T00:46:29;10.40;99.90
21037;DHT22;10677;50.942;4.028;2024-02-14T00:48:56;10.40;99.90
21037;DHT22;10677;50.942;4.028;2024-02-14T00:51:21;10.50;99.90
21037;DHT22;10677;50.942;4.028;2024-02-14T00:53:47;10.40;99.90
21037;DHT22;10677;50.942;4.028;2024-02-14T00:56:13;10.40;99.90
21037;DHT22;10677;50.942;4.028;2024-02-14T00:58:38;10.50;99.90
21037;DHT22;10677;50.942;4.028;2024-02-14T01:01:05;10.50;99.90
21037;DHT22;10677;50.942;4.028;2024-02-14T01:03:31;10.60;99.90
21037;DHT22;10677;50.942;4.028;2024-02-14T01:05:57;10.60;99.90
21037;DHT22;10677;50.942;4.028;2024-02-14T01:08:23;10.60;99.90
21037;DHT22;10677;50.942;4.028;2024-02-14T01:10:48;10.60;99.90
21037;DHT22;10677;50.942;4.028;2024-02-14T01:13:17;10.60;99.90
21037;DHT22;10677;50.942;4.028;2024-02-14T01:15:43;10.70;99.90
21037;DHT22;10677;50.942;4.028;2024-02-14T01:18:08;10.70;99.90
21037;DHT22;10677;50.942;4.028;2024-02-14T01:20:34;10.70;99.90
21037;DHT22;10677;50.942;4.028;2024-02-14T01:22:59;10.70;99.90
21037;DHT22;10677;50.942;4.028;2024-02-14T01:25:26;10.60;99.90
21037;DHT22;10677;50.942;4.028;2024-02-14T01:27:52;10.70;99.90
21037;DHT22;10677;50.942;4.028;2024-02-14T01:30:20;10.70;99.90
21037;DHT22;10677;50.942;4.028;2024-02-14T01:32:46;10.60;99.90
21037;DHT22;10677;50.942;4.028;2024-02-14T01:35:12;10.60;99.90
21037;DHT22;10677;50.942;4.028;2024-02-14T01:37:38;10.60;99.90
21037;DHT22;10677;50.942;4.028;2024-02-14T01:40:05;10.60;99.90
21037;DHT22;10677;50.942;4.028;2024-02-14T01:42:32;10.60;99.90
21037;DHT22;10677;50.942;4.028;2024-02-14T01:44:58;10.60;99.90
21037;DHT22;10677;50.942;4.028;2024-02-14T01:47:24;10.60;99.90
21037;DHT22;10677;50.942;4.028;2024-02-14T01:49:50;10.60;99.90
21037;DHT22;10677;50.942;4.028;2024-02-14T01:52:16;10.60;99.90
21037;DHT22;10677;50.942;4.028;2024-02-14T01:54:42;10.60;99.90
21037;DHT22;10677;50.942;4.028;2024-02-14T01:57:09;10.60;99.90
21037;DHT22;10677;50.942;4.028;2024-02-14T01:59:36;10.60;99.90
21037;DHT22;10677;50.942;4.028;2024-02-14T02:02:03;10.60;99.90
21037;DHT22;10677;50.942;4.028;2024-02-14T02:04:32;10.60;99.90
21037;DHT22;10677;50.942;4.028;2024-02-14T02:06:58;10.70;99.90
21037;DHT22;10677;50.942;4.028;2024-02-14T02:09:24;10.70;99.90
21037;DHT22;10677;50.942;4.028;2024-02-14T02:11:50;10.60;99.90
21037;DHT22;10677;50.942;4.028;2024-02-14T02:14:16;10.70;99.90
21037;DHT22;10677;50.942;4.028;2024-02-14T02:16:42;10.70;99.90
21037;DHT22;10677;50.942;4.028;2024-02-14T02:19:08;10.70;99.90
21037;DHT22;10677;50.942;4.028;2024-02-14T02:21:38;10.70;99.90
21037;DHT22;10677;50.942;4.028;2024-02-14T02:24:04;10.70;99.90
21037;DHT22;10677;50.942;4.028;2024-02-14T02:26:30;10.70;99.90
21037;DHT22;10677;50.942;4.028;2024-02-14T02:28:56;10.80;99.90
21037;DHT22;10677;50.942;4.028;2024-02-14T02:31:22;10.70;99.90
21037;DHT22;10677;50.942;4.028;2024-02-14T02:33:48;10.70;99.90
21037;DHT22;10677;50.942;4.028;2024-02-14T02:36:16;10.70;99.90
21037;DHT22;10677;50.942;4.028;2024-02-14T02:38:41;10.70;99.90
21037;DHT22;10677;50.942;4.028;2024-02-14T02:41:07;10.70;99.90
21037;DHT22;10677;50.942;4.028;2024-02-14T02:43:33;10.70;99.90
21037;DHT22;10677;50.942;4.028;2024-02-14T02:46:00;10.60;99.90
21037;DHT22;10677;50.942;4.028;2024-02-14T02:48:27;10.70;99.90
21037;DHT22;10677;50.942;4.028;2024-02-14T02:50:53;10.60;99.90
21037;DHT22;10677;50.942;4.028;2024-02-14T02:53:19;10.60;99.90
21037;DHT22;10677;50.942;4.028;2024-02-14T02:55:45;10.60;99.90
21037;DHT22;10677;50.942;4.028;2024-02-14T02:58:11;10.60;99.90
21037;DHT22;10677;50.942;4.028;2024-02-14T03:00:37;10.60;99.90
21037;DHT22;10677;50.942;4.028;2024-02-14T03:03:02;10.70;99.90
21037;DHT22;10677;50.942;4.028;2024-02-14T03:05:30;10.70;99.90
21037;DHT22;10677;50.942;4.028;2024-02-14T03:07:59;10.70;99.90
21037;DHT22;10677;50.942;4.028;2024-02-14T03:10:25;10.70;99.90
21037;DHT22;10677;50.942;4.028;2024-02-14T03:12:51;10.60;99.90
21037;DHT22;10677;50.942;4.028;2024-02-14T03:15:18;10.70;99.90
21037;DHT22;10677;50.942;4.028;2024-02-14T03:17:44;10.70;99.90
21037;DHT22;10677;50.942;4.028;2024-02-14T03:20:13;10.70;99.90
21037;DHT22;10677;50.942;4.028;2024-02-14T03:22:42;10.70;99.90
21037;DHT22;10677;50.942;4.028;2024-02-14T03:25:18;10.70;99.90
21037;DHT22;10677;50.942;4.028;2024-02-14T03:27:45;10.70;99.90
21037;DHT22;10677;50.942;4.028;2024-02-14T03:30:13;10.70;99.90
21037;DHT22;10677;50.942;4.028;2024-02-14T03:32:42;10.80;99.90
21037;DHT22;10677;50.942;4.028;2024-02-14T03:35:08;10.80;99.90
21037;DHT22;10677;50.942;4.028;2024-02-14T03:37:37;10.80;99.90
21037;DHT22;10677;50.942;4.028;2024-02-14T03:40:05;10.80;99.90
21037;DHT22;10677;50.942;4.028;2024-02-14T03:42:32;10.90;99.90
21037;DHT22;10677;50.942;4.028;2024-02-14T03:44:58;10.90;99.90
21037;DHT22;10677;50.942;4.028;2024-02-14T03:47:33;11.00;99.90
21037;DHT22;10677;50.942;4.028;2024-02-14T03:50:00;10.90;99.90
21037;DHT22;10677;50.942;4.028;2024-02-14T03:52:25;10.90;99.90
21037;DHT22;10677;50.942;4.028;2024-02-14T03:54:52;11.00;99.90
21037;DHT22;10677;50.942;4.028;2024-02-14T03:57:17;10.90;99.90
21037;DHT22;10677;50.942;4.028;2024-02-14T03:59:46;10.90;99.90
21037;DHT22;10677;50.942;4.028;2024-02-14T04:02:12;11.00;99.90
21037;DHT22;10677;50.942;4.028;2024-02-14T04:04:42;11.00;99.90
21037;DHT22;10677;50.942;4.028;2024-02-14T04:07:09;11.10;99.90
21037;DHT22;10677;50.942;4.028;2024-02-14T04:09:35;11.10;99.90
21037;DHT22;10677;50.942;4.028;2024-02-14T04:12:01;11.10;99.90
21037;DHT22;10677;50.942;4.028;2024-02-14T04:14:27;11.10;99.90
21037;DHT22;10677;50.942;4.028;2024-02-14T04:16:52;11.10;99.90
21037;DHT22;10677;50.942;4.028;2024-02-14T04:19:18;11.10;99.90
21037;DHT22;10677;50.942;4.028;2024-02-14T04:21:44;11.20;99.90
21037;DHT22;10677;50.942;4.028;2024-02-14T04:24:10;11.30;99.90
21037;DHT22;10677;50.942;4.028;2024-02-14T04:26:36;11.20;99.90
21037;DHT22;10677;50.942;4.028;2024-02-14T04:29:02;11.20;99.90
21037;DHT22;10677;50.942;4.028;2024-02-14T04:31:28;11.30;99.90
21037;DHT22;10677;50.942;4.028;2024-02-14T04:33:55;11.20;99.90
21037;DHT22;10677;50.942;4.028;2024-02-14T04:36:21;11.20;99.90
21037;DHT22;10677;50.942;4.028;2024-02-14T04:38:50;11.20;99.90
21037;DHT22;10677;50.942;4.028;2024-02-14T04:41:17;11.30;99.90
21037;DHT22;10677;50.942;4.028;2024-02-14T04:43:43;11.30;99.90
21037;DHT22;10677;50.942;4.028;2024-02-14T04:46:08;11.30;99.90
21037;DHT22;10677;50.942;4.028;2024-02-14T04:48:37;11.40;99.90
21037;DHT22;10677;50.942;4.028;2024-02-14T04:51:04;11.30;99.90
21037;DHT22;10677;50.942;4.028;2024-02-14T04:53:32;11.30;99.90
21037;DHT22;10677;50.942;4.028;2024-02-14T04:55:58;11.30;99.90
21037;DHT22;10677;50.942;4.028;2024-02-14T04:58:24;11.40;99.90
21037;DHT22;10677;50.942;4.028;2024-02-14T05:00:51;11.30;99.90
21037;DHT22;10677;50.942;4.028;2024-02-14T05:03:17;11.40;99.90
21037;DHT22;10677;50.942;4.028;2024-02-14T05:05:44;11.40;99.90
21037;DHT22;10677;50.942;4.028;2024-02-14T05:08:09;11.50;99.90
21037;DHT22;10677;50.942;4.028;2024-02-14T05:10:35;11.40;99.90
21037;DHT22;10677;50.942;4.028;2024-02-14T05:13:01;11.40;99.90
21037;DHT22;10677;50.942;4.028;2024-02-14T05:15:27;11.40;99.90
21037;DHT22;10677;50.942;4.028;2024-02-14T05:17:52;11.40;99.90
21037;DHT22;10677;50.942;4.028;2024-02-14T05:20:18;11.40;99.90
21037;DHT22;10677;50.942;4.028;2024-02-14T05:22:44;11.40;99.90
21037;DHT22;10677;50.942;4.028;2024-02-14T05:25:10;11.30;99.90
21037;DHT22;10677;50.942;4.028;2024-02-14T05:27:36;11.30;99.90
21037;DHT22;10677;50.942;4.028;2024-02-14T05:30:06;11.30;99.90
21037;DHT22;10677;50.942;4.028;2024-02-14T05:32:32;11.40;99.90
21037;DHT22;10677;50.942;4.028;2024-02-14T05:34:59;11.40;99.90
21037;DHT22;10677;50.942;4.028;2024-02-14T05:37:24;11.40;99.90
21037;DHT22;10677;50.942;4.028;2024-02-14T05:39:54;11.50;99.90
21037;DHT22;10677;50.942;4.028;2024-02-14T05:42:20;11.50;99.90
21037;DHT22;10677;50.942;4.028;2024-02-14T05:44:47;11.50;99.90
21037;DHT22;10677;50.942;4.028;2024-02-14T05:47:12;11.60;99.90
21037;DHT22;10677;50.942;4.028;2024-02-14T05:49:39;11.60;99.90
21037;DHT22;10677;50.942;4.028;2024-02-14T05:52:05;11.60;99.90
21037;DHT22;10677;50.942;4.028;2024-02-14T05:54:31;11.60;99.90
21037;DHT22;10677;50.942;4.028;2024-02-14T05:56:57;11.50;99.90
21037;DHT22;10677;50.942;4.028;2024-02-14T05:59:23;11.60;99.90
21037;DHT22;10677;50.942;4.028;2024-02-14T06:01:49;11.60;99.90
21037;DHT22;10677;50.942;4.028;2024-02-14T06:04:14;11.60;99.90
21037;DHT22;10677;50.942;4.028;2024-02-14T06:06:40;11.60;99.90
21037;DHT22;10677;50.942;4.028;2024-02-14T06:09:06;11.60;99.90
21037;DHT22;10677;50.942;4.028;2024-02-14T06:11:35;11.60;99.90
21037;DHT22;10677;50.942;4.028;2024-02-14T06:14:07;11.70;99.90
21037;DHT22;10677;50.942;4.028;2024-02-14T06:16:33;11.60;99.90
21037;DHT22;10677;50.942;4.028;2024-02-14T06:18:59;11.60;99.90
21037;DHT22;10677;50.942;4.028;2024-02-14T06:21:25;11.60;99.90
21037;DHT22;10677;50.942;4.028;2024-02-14T06:23:51;11.50;99.90
21037;DHT22;10677;50.942;4.028;2024-02-14T06:26:17;11.50;99.90
21037;DHT22;10677;50.942;4.028;2024-02-14T06:28:44;11.50;99.90
21037;DHT22;10677;50.942;4.028;2024-02-14T06:31:10;11.50;99.90
21037;DHT22;10677;50.942;4.028;2024-02-14T06:33:36;11.50;99.90
21037;DHT22;10677;50.942;4.028;2024-02-14T06:36:01;11.50;99.90
21037;DHT22;10677;50.942;4.028;2024-02-14T06:38:27;11.50;99.90
21037;DHT22;10677;50.942;4.028;2024-02-14T06:40:53;11.60;99.90
21037;DHT22;10677;50.942;4.028;2024-02-14T06:43:18;11.60;99.90
21037;DHT22;10677;50.942;4.028;2024-02-14T06:45:45;11.60;99.90
21037;DHT22;10677;50.942;4.028;2024-02-14T06:48:11;11.60;99.90
21037;DHT22;10677;50.942;4.028;2024-02-14T06:50:36;11.70;99.90
21037;DHT22;10677;50.942;4.028;2024-02-14T06:53:02;11.70;99.90
21037;DHT22;10677;50.942;4.028;2024-02-14T06:55:29;11.60;99.90
21037;DHT22;10677;50.942;4.028;2024-02-14T06:57:57;11.70;99.90
21037;DHT22;10677;50.942;4.028;2024-02-14T07:00:23;11.70;99.90
21037;DHT22;10677;50.942;4.028;2024-02-14T07:02:49;11.80;99.90
21037;DHT22;10677;50.942;4.028;2024-02-14T07:05:15;11.80;99.90
21037;DHT22;10677;50.942;4.028;2024-02-14T07:07:41;11.80;99.90
21037;DHT22;10677;50.942;4.028;2024-02-14T07:10:07;11.80;99.90
21037;DHT22;10677;50.942;4.028;2024-02-14T07:12:33;11.80;99.90
21037;DHT22;10677;50.942;4.028;2024-02-14T07:14:59;11.80;99.90
21037;DHT22;10677;50.942;4.028;2024-02-14T07:17:24;11.80;99.90
21037;DHT22;10677;50.942;4.028;2024-02-14T07:19:50;11.90;99.90
21037;DHT22;10677;50.942;4.028;2024-02-14T07:22:16;11.90;99.90
21037;DHT22;10677;50.942;4.028;2024-02-14T07:24:44;11.90;99.90
21037;DHT22;10677;50.942;4.028;2024-02-14T07:27:12;11.90;99.90
21037;DHT22;10677;50.942;4.028;2024-02-14T07:29:38;11.90;99.90
21037;DHT22;10677;50.942;4.028;2024-02-14T07:32:04;11.90;99.90
21037;DHT22;10677;50.942;4.028;2024-02-14T07:34:29;12.00;99.90
21037;DHT22;10677;50.942;4.028;2024-02-14T07:36:55;12.10;99.90
21037;DHT22;10677;50.942;4.028;2024-02-14T07:39:21;12.00;99.90
21037;DHT22;10677;50.942;4.028;2024-02-14T07:41:46;12.00;99.90
21037;DHT22;10677;50.942;4.028;2024-02-14T07:44:12;11.90;99.90
21037;DHT22;10677;50.942;4.028;2024-02-14T07:46:39;11.90;99.90
21037;DHT22;10677;50.942;4.028;2024-02-14T07:49:04;12.00;99.90
21037;DHT22;10677;50.942;4.028;2024-02-14T07:51:31;11.90;99.90
21037;DHT22;10677;50.942;4.028;2024-02-14T07:54:03;12.00;99.90
21037;DHT22;10677;50.942;4.028;2024-02-14T07:56:29;12.00;99.90
21037;DHT22;10677;50.942;4.028;2024-02-14T07:58:56;12.00;99.90
21037;DHT22;10677;50.942;4.028;2024-02-14T08:01:22;12.10;99.90
21037;DHT22;10677;50.942;4.028;2024-02-14T08:03:47;12.10;99.90
21037;DHT22;10677;50.942;4.028;2024-02-14T08:06:13;12.20;99.90
21037;DHT22;10677;50.942;4.028;2024-02-14T08:08:39;12.30;99.90
21037;DHT22;10677;50.942;4.028;2024-02-14T08:11:05;12.30;99.90
21037;DHT22;10677;50.942;4.028;2024-02-14T08:13:31;12.40;99.90
21037;DHT22;10677;50.942;4.028;2024-02-14T08:15:57;12.40;99.90
21037;DHT22;10677;50.942;4.028;2024-02-14T08:18:24;12.40;99.90
21037;DHT22;10677;50.942;4.028;2024-02-14T08:20:49;12.30;99.90
21037;DHT22;10677;50.942;4.028;2024-02-14T08:23:15;12.30;99.90
21037;DHT22;10677;50.942;4.028;2024-02-14T08:25:42;12.20;99.90
21037;DHT22;10677;50.942;4.028;2024-02-14T08:28:09;12.20;99.90
21037;DHT22;10677;50.942;4.028;2024-02-14T08:30:34;12.20;99.90
21037;DHT22;10677;50.942;4.028;2024-02-14T08:33:00;12.30;99.90
21037;DHT22;10677;50.942;4.028;2024-02-14T08:35:26;12.40;99.90
21037;DHT22;10677;50.942;4.028;2024-02-14T08:37:52;12.40;99.90
21037;DHT22;10677;50.942;4.028;2024-02-14T08:40:17;12.40;99.90
21037;DHT22;10677;50.942;4.028;2024-02-14T08:42:43;12.50;99.90
21037;DHT22;10677;50.942;4.028;2024-02-14T08:45:09;12.50;99.90
21037;DHT22;10677;50.942;4.028;2024-02-14T08:47:36;12.50;99.90
21037;DHT22;10677;50.942;4.028;2024-02-14T08:50:03;12.60;99.90
21037;DHT22;10677;50.942;4.028;2024-02-14T08:52:29;12.60;99.90
21037;DHT22;10677;50.942;4.028;2024-02-14T08:54:54;12.70;99.90
21037;DHT22;10677;50.942;4.028;2024-02-14T08:57:20;12.60;99.90
21037;DHT22;10677;50.942;4.028;2024-02-14T08:59:46;12.60;99.90
21037;DHT22;10677;50.942;4.028;2024-02-14T09:02:16;12.60;99.90
21037;DHT22;10677;50.942;4.028;2024-02-14T09:04:42;12.70;99.90
21037;DHT22;10677;50.942;4.028;2024-02-14T09:07:09;12.70;99.90
21037;DHT22;10677;50.942;4.028;2024-02-14T09:09:35;12.70;99.90
21037;DHT22;10677;50.942;4.028;2024-02-14T09:12:02;12.70;99.90
21037;DHT22;10677;50.942;4.028;2024-02-14T09:14:31;12.70;99.90
21037;DHT22;10677;50.942;4.028;2024-02-14T09:16:57;12.70;99.90
21037;DHT22;10677;50.942;4.028;2024-02-14T09:19:23;12.70;99.90
21037;DHT22;10677;50.942;4.028;2024-02-14T09:21:50;12.80;99.90
21037;DHT22;10677;50.942;4.028;2024-02-14T09:24:16;12.80;99.90
21037;DHT22;10677;50.942;4.028;2024-02-14T09:26:42;12.80;99.90
21037;DHT22;10677;50.942;4.028;2024-02-14T09:29:08;12.80;99.90
21037;DHT22;10677;50.942;4.028;2024-02-14T09:31:36;12.80;99.90
21037;DHT22;10677;50.942;4.028;2024-02-14T09:34:02;12.80;99.90
21037;DHT22;10677;50.942;4.028;2024-02-14T09:36:28;12.70;99.90
21037;DHT22;10677;50.942;4.028;2024-02-14T09:38:54;12.70;99.90
21037;DHT22;10677;50.942;4.028;2024-02-14T09:43:46;12.70;99.90
21037;DHT22;10677;50.942;4.028;2024-02-14T09:46:13;12.80;99.90
21037;DHT22;10677;50.942;4.028;2024-02-14T09:48:45;12.80;99.90
21037;DHT22;10677;50.942;4.028;2024-02-14T09:51:12;12.80;99.90
21037;DHT22;10677;50.942;4.028;2024-02-14T09:53:39;12.80;99.90
21037;DHT22;10677;50.942;4.028;2024-02-14T09:56:05;12.80;99.90
21037;DHT22;10677;50.942;4.028;2024-02-14T09:58:32;12.80;99.90
21037;DHT22;10677;50.942;4.028;2024-02-14T10:00:58;12.80;99.90
21037;DHT22;10677;50.942;4.028;2024-02-14T10:03:24;12.90;99.90
21037;DHT22;10677;50.942;4.028;2024-02-14T10:05:51;12.90;99.90
21037;DHT22;10677;50.942;4.028;2024-02-14T10:08:18;12.80;99.90
21037;DHT22;10677;50.942;4.028;2024-02-14T10:10:46;12.90;99.90
21037;DHT22;10677;50.942;4.028;2024-02-14T10:13:12;12.90;99.90
21037;DHT22;10677;50.942;4.028;2024-02-14T10:15:38;12.90;99.90
21037;DHT22;10677;50.942;4.028;2024-02-14T10:18:03;12.90;99.90
21037;DHT22;10677;50.942;4.028;2024-02-14T10:20:29;12.90;99.90
21037;DHT22;10677;50.942;4.028;2024-02-14T10:23:03;12.90;99.90
21037;DHT22;10677;50.942;4.028;2024-02-14T10:25:34;12.90;99.90
21037;DHT22;10677;50.942;4.028;2024-02-14T10:28:06;13.00;99.90
21037;DHT22;10677;50.942;4.028;2024-02-14T10:30:36;13.00;99.90
21037;DHT22;10677;50.942;4.028;2024-02-14T10:33:04;13.10;99.90
21037;DHT22;10677;50.942;4.028;2024-02-14T10:35:35;13.00;99.90
21037;DHT22;10677;50.942;4.028;2024-02-14T10:38:02;13.00;99.90
21037;DHT22;10677;50.942;4.028;2024-02-14T10:40:29;13.00;99.90
21037;DHT22;10677;50.942;4.028;2024-02-14T10:42:56;13.00;99.90
21037;DHT22;10677;50.942;4.028;2024-02-14T10:45:24;12.90;99.90
21037;DHT22;10677;50.942;4.028;2024-02-14T10:47:51;12.90;99.90
21037;DHT22;10677;50.942;4.028;2024-02-14T10:50:23;12.90;99.90
21037;DHT22;10677;50.942;4.028;2024-02-14T10:52:51;12.90;99.90
21037;DHT22;10677;50.942;4.028;2024-02-14T10:55:20;12.90;99.90
21037;DHT22;10677;50.942;4.028;2024-02-14T10:57:53;13.00;99.90
21037;DHT22;10677;50.942;4.028;2024-02-14T11:00:20;12.90;99.90
21037;DHT22;10677;50.942;4.028;2024-02-14T11:02:46;13.00;99.90
21037;DHT22;10677;50.942;4.028;2024-02-14T11:05:16;13.00;99.90
21037;DHT22;10677;50.942;4.028;2024-02-14T11:07:48;13.10;99.90
21037;DHT22;10677;50.942;4.028;2024-02-14T11:10:18;13.20;99.90
21037;DHT22;10677;50.942;4.028;2024-02-14T11:12:45;13.20;99.90
21037;DHT22;10677;50.942;4.028;2024-02-14T11:15:14;13.10;99.90
21037;DHT22;10677;50.942;4.028;2024-02-14T11:17:41;13.10;99.90
21037;DHT22;10677;50.942;4.028;2024-02-14T11:20:18;13.10;99.90
21037;DHT22;10677;50.942;4.028;2024-02-14T11:22:57;13.10;99.90
21037;DHT22;10677;50.942;4.028;2024-02-14T11:25:35;13.10;99.90
21037;DHT22;10677;50.942;4.028;2024-02-14T11:28:24;13.10;99.90
21037;DHT22;10677;50.942;4.028;2024-02-14T11:30:51;13.10;99.90
21037;DHT22;10677;50.942;4.028;2024-02-14T11:35:48;13.20;99.90
21037;DHT22;10677;50.942;4.028;2024-02-14T11:38:15;13.20;99.90
21037;DHT22;10677;50.942;4.028;2024-02-14T11:40:41;13.20;99.90
21037;DHT22;10677;50.942;4.028;2024-02-14T11:43:18;13.30;99.90
21037;DHT22;10677;50.942;4.028;2024-02-14T11:45:45;13.40;99.90
21037;DHT22;10677;50.942;4.028;2024-02-14T11:48:13;13.40;99.90
21037;DHT22;10677;50.942;4.028;2024-02-14T11:50:40;13.50;99.90
21037;DHT22;10677;50.942;4.028;2024-02-14T11:53:07;13.60;99.90
21037;DHT22;10677;50.942;4.028;2024-02-14T11:55:36;13.60;99.90
21037;DHT22;10677;50.942;4.028;2024-02-14T11:58:11;13.70;99.90
21037;DHT22;10677;50.942;4.028;2024-02-14T12:00:39;13.70;99.90
21037;DHT22;10677;50.942;4.028;2024-02-14T12:03:07;13.70;99.90
21037;DHT22;10677;50.942;4.028;2024-02-14T12:05:34;13.80;99.90
21037;DHT22;10677;50.942;4.028;2024-02-14T12:08:01;13.80;99.90
21037;DHT22;10677;50.942;4.028;2024-02-14T12:10:30;13.80;99.90
21037;DHT22;10677;50.942;4.028;2024-02-14T12:12:56;13.80;99.90
21037;DHT22;10677;50.942;4.028;2024-02-14T12:15:24;13.80;99.90
21037;DHT22;10677;50.942;4.028;2024-02-14T12:17:49;13.90;99.90
21037;DHT22;10677;50.942;4.028;2024-02-14T12:20:15;14.00;99.90
21037;DHT22;10677;50.942;4.028;2024-02-14T12:22:41;14.10;99.90
21037;DHT22;10677;50.942;4.028;2024-02-14T12:25:10;14.10;99.90
21037;DHT22;10677;50.942;4.028;2024-02-14T12:27:37;14.10;99.90
21037;DHT22;10677;50.942;4.028;2024-02-14T12:30:05;14.00;99.90
21037;DHT22;10677;50.942;4.028;2024-02-14T12:32:32;14.00;99.90
21037;DHT22;10677;50.942;4.028;2024-02-14T12:34:58;14.00;99.90
21037;DHT22;10677;50.942;4.028;2024-02-14T12:37:25;14.00;99.90
21037;DHT22;10677;50.942;4.028;2024-02-14T12:39:51;14.10;99.90
21037;DHT22;10677;50.942;4.028;2024-02-14T12:42:16;14.00;99.90
21037;DHT22;10677;50.942;4.028;2024-02-14T12:44:44;14.00;99.90
21037;DHT22;10677;50.942;4.028;2024-02-14T12:47:09;13.90;99.90
21037;DHT22;10677;50.942;4.028;2024-02-14T12:49:35;13.90;99.90
21037;DHT22;10677;50.942;4.028;2024-02-14T12:52:01;13.90;99.90
21037;DHT22;10677;50.942;4.028;2024-02-14T12:54:27;13.90;99.90
21037;DHT22;10677;50.942;4.028;2024-02-14T12:56:53;13.80;99.90
21037;DHT22;10677;50.942;4.028;2024-02-14T12:59:19;13.80;99.90
21037;DHT22;10677;50.942;4.028;2024-02-14T13:01:44;13.90;99.90
21037;DHT22;10677;50.942;4.028;2024-02-14T13:04:10;13.80;99.90
21037;DHT22;10677;50.942;4.028;2024-02-14T13:06:36;13.70;99.90
21037;DHT22;10677;50.942;4.028;2024-02-14T13:09:03;13.60;99.90
21037;DHT22;10677;50.942;4.028;2024-02-14T13:11:31;13.60;99.90
21037;DHT22;10677;50.942;4.028;2024-02-14T13:13:57;13.60;99.90
21037;DHT22;10677;50.942;4.028;2024-02-14T13:16:23;13.60;99.90
21037;DHT22;10677;50.942;4.028;2024-02-14T13:18:49;13.70;99.90
21037;DHT22;10677;50.942;4.028;2024-02-14T13:21:15;13.70;99.90
21037;DHT22;10677;50.942;4.028;2024-02-14T13:23:42;13.80;99.90
21037;DHT22;10677;50.942;4.028;2024-02-14T13:26:08;13.70;99.90
21037;DHT22;10677;50.942;4.028;2024-02-14T13:28:34;13.70;99.90
21037;DHT22;10677;50.942;4.028;2024-02-14T13:30:59;13.70;99.90
21037;DHT22;10677;50.942;4.028;2024-02-14T13:33:25;13.70;99.90
21037;DHT22;10677;50.942;4.028;2024-02-14T13:35:51;13.80;99.90
21037;DHT22;10677;50.942;4.028;2024-02-14T13:38:17;13.80;99.90
21037;DHT22;10677;50.942;4.028;2024-02-14T13:40:43;13.80;99.90
21037;DHT22;10677;50.942;4.028;2024-02-14T13:43:09;13.80;99.90
21037;DHT22;10677;50.942;4.028;2024-02-14T13:45:43;13.80;99.90
21037;DHT22;10677;50.942;4.028;2024-02-14T13:48:10;13.80;99.90
21037;DHT22;10677;50.942;4.028;2024-02-14T13:50:36;13.80;99.90
21037;DHT22;10677;50.942;4.028;2024-02-14T13:53:02;13.80;99.90
21037;DHT22;10677;50.942;4.028;2024-02-14T13:55:28;13.70;99.90
21037;DHT22;10677;50.942;4.028;2024-02-14T13:57:54;13.70;99.90
21037;DHT22;10677;50.942;4.028;2024-02-14T14:00:20;13.80;99.90
21037;DHT22;10677;50.942;4.028;2024-02-14T14:02:46;13.80;99.90
21037;DHT22;10677;50.942;4.028;2024-02-14T14:05:12;13.80;99.90
21037;DHT22;10677;50.942;4.028;2024-02-14T14:07:39;13.90;99.90
21037;DHT22;10677;50.942;4.028;2024-02-14T14:10:06;13.90;99.90
21037;DHT22;10677;50.942;4.028;2024-02-14T14:12:33;14.00;99.90
21037;DHT22;10677;50.942;4.028;2024-02-14T14:15:00;14.00;99.90
21037;DHT22;10677;50.942;4.028;2024-02-14T14:17:27;14.10;99.90
21037;DHT22;10677;50.942;4.028;2024-02-14T14:19:53;14.10;99.90
21037;DHT22;10677;50.942;4.028;2024-02-14T14:22:19;14.10;99.90
21037;DHT22;10677;50.942;4.028;2024-02-14T14:24:44;14.10;99.90
21037;DHT22;10677;50.942;4.028;2024-02-14T14:27:10;14.10;99.90
21037;DHT22;10677;50.942;4.028;2024-02-14T14:29:42;14.20;99.90
21037;DHT22;10677;50.942;4.028;2024-02-14T14:32:09;14.20;99.90
21037;DHT22;10677;50.942;4.028;2024-02-14T14:34:34;14.20;99.90
21037;DHT22;10677;50.942;4.028;2024-02-14T14:37:00;14.30;99.90
21037;DHT22;10677;50.942;4.028;2024-02-14T14:39:26;14.30;99.90
21037;DHT22;10677;50.942;4.028;2024-02-14T14:41:52;14.30;99.90
21037;DHT22;10677;50.942;4.028;2024-02-14T14:44:24;14.40;99.90
21037;DHT22;10677;50.942;4.028;2024-02-14T14:46:50;14.50;99.90
21037;DHT22;10677;50.942;4.028;2024-02-14T14:49:16;14.50;99.90
21037;DHT22;10677;50.942;4.028;2024-02-14T14:51:42;14.60;99.90
21037;DHT22;10677;50.942;4.028;2024-02-14T14:54:10;14.60;99.90
21037;DHT22;10677;50.942;4.028;2024-02-14T14:56:36;14.60;99.90
21037;DHT22;10677;50.942;4.028;2024-02-14T14:59:01;14.70;99.90
21037;DHT22;10677;50.942;4.028;2024-02-14T15:01:30;14.60;99.90
21037;DHT22;10677;50.942;4.028;2024-02-14T15:03:55;14.60;99.90
21037;DHT22;10677;50.942;4.028;2024-02-14T15:06:21;14.60;99.90
21037;DHT22;10677;50.942;4.028;2024-02-14T15:08:47;14.60;99.90
21037;DHT22;10677;50.942;4.028;2024-02-14T15:11:13;14.70;99.90
21037;DHT22;10677;50.942;4.028;2024-02-14T15:13:42;14.80;99.90
21037;DHT22;10677;50.942;4.028;2024-02-14T15:16:08;14.70;99.90
21037;DHT22;10677;50.942;4.028;2024-02-14T15:18:34;14.70;99.90
21037;DHT22;10677;50.942;4.028;2024-02-14T15:21:00;14.60;99.90
21037;DHT22;10677;50.942;4.028;2024-02-14T15:23:27;14.60;99.90
21037;DHT22;10677;50.942;4.028;2024-02-14T15:25:53;14.60;99.90
21037;DHT22;10677;50.942;4.028;2024-02-14T15:28:28;14.50;99.90
21037;DHT22;10677;50.942;4.028;2024-02-14T15:30:53;14.50;99.90